sensor_id;sensor_type;location;lat;lon;timestamp;pressure;altitude;pressure_sealevel;temperature;humidity
61026;BME280;46911;32.650;-16.902;2023-04-09T00:00:40;101534.22;;;17.03;59.90
61026;BME280;46911;32.650;-16.902;2023-04-09T00:02:43;101532.63;;;17.00;60.11
61026;BME280;46911;32.650;-16.902;2023-04-09T00:04:46;101511.94;;;16.89;60.22
61026;BME280;46911;32.650;-16.902;2023-04-09T00:06:47;101513.41;;;16.94;60.41
61026;BME280;46911;32.650;-16.902;2023-04-09T00:08:52;101516.22;;;16.92;60.38
61026;BME280;46911;32.650;-16.902;2023-04-09T00:10:54;101532.13;;;17.06;60.32
61026;BME280;46911;32.650;-16.902;2023-04-09T00:12:58;101515.72;;;16.98;60.28
61026;BME280;46911;32.650;-16.902;2023-04-09T00:14:59;101511.69;;;16.93;60.30
61026;BME280;46911;32.650;-16.902;2023-04-09T00:17:02;101521.63;;;16.92;59.84
61026;BME280;46911;32.650;-16.902;2023-04-09T00:19:05;101529.94;;;16.89;60.16
61026;BME280;46911;32.650;-16.902;2023-04-09T00:21:11;101543.19;;;16.92;60.22
61026;BME280;46911;32.650;-16.902;2023-04-09T00:23:17;101548.19;;;16.85;60.57
61026;BME280;46911;32.650;-16.902;2023-04-09T00:25:21;101548.66;;;16.79;60.67
61026;BME280;46911;32.650;-16.902;2023-04-09T00:27:22;101548.66;;;16.79;61.04
61026;BME280;46911;32.650;-16.902;2023-04-09T00:29:23;101527.75;;;16.60;61.50
61026;BME280;46911;32.650;-16.902;2023-04-09T00:31:26;101548.31;;;16.72;61.85
61026;BME280;46911;32.650;-16.902;2023-04-09T00:33:27;101559.34;;;16.69;62.04
61026;BME280;46911;32.650;-16.902;2023-04-09T00:35:31;101545.63;;;16.61;62.17
61026;BME280;46911;32.650;-16.902;2023-04-09T00:37:35;101555.44;;;16.62;62.48
61026;BME280;46911;32.650;-16.902;2023-04-09T00:39:38;101534.97;;;16.48;62.47
61026;BME280;46911;32.650;-16.902;2023-04-09T00:41:41;101534.00;;;16.49;62.43
61026;BME280;46911;32.650;-16.902;2023-04-09T00:43:44;101550.28;;;16.59;62.46
61026;BME280;46911;32.650;-16.902;2023-04-09T00:45:46;101548.81;;;16.66;62.46
61026;BME280;46911;32.650;-16.902;2023-04-09T00:47:47;101544.16;;;16.68;62.46
61026;BME280;46911;32.650;-16.902;2023-04-09T00:49:48;101542.44;;;16.67;62.20
61026;BME280;46911;32.650;-16.902;2023-04-09T00:51:49;101557.84;;;16.88;61.99
61026;BME280;46911;32.650;-16.902;2023-04-09T00:53:55;101538.50;;;16.71;62.09
61026;BME280;46911;32.650;-16.902;2023-04-09T00:55:57;101538.03;;;16.66;62.09
61026;BME280;46911;32.650;-16.902;2023-04-09T00:58:00;101560.19;;;16.70;62.26
61026;BME280;46911;32.650;-16.902;2023-04-09T01:00:08;101558.84;;;16.76;62.36
61026;BME280;46911;32.650;-16.902;2023-04-09T01:02:13;101547.09;;;16.65;62.19
61026;BME280;46911;32.650;-16.902;2023-04-09T01:04:19;101536.09;;;16.57;62.47
61026;BME280;46911;32.650;-16.902;2023-04-09T01:06:48;101556.16;;;16.64;62.63
61026;BME280;46911;32.650;-16.902;2023-04-09T01:09:09;101553.84;;;16.60;62.63
61026;BME280;46911;32.650;-16.902;2023-04-09T01:11:45;101556.53;;;16.60;62.93
61026;BME280;46911;32.650;-16.902;2023-04-09T01:14:10;101551.38;;;16.56;62.95
61026;BME280;46911;32.650;-16.902;2023-04-09T01:16:18;101540.63;;;16.45;63.14
61026;BME280;46911;32.650;-16.902;2023-04-09T01:20:38;101541.72;;;16.43;63.23
61026;BME280;46911;32.650;-16.902;2023-04-09T01:22:55;101563.88;;;16.57;63.24
61026;BME280;46911;32.650;-16.902;2023-04-09T01:27:51;101543.28;;;16.56;62.92
61026;BME280;46911;32.650;-16.902;2023-04-09T01:29:59;101536.56;;;16.51;63.19
61026;BME280;46911;32.650;-16.902;2023-04-09T01:32:06;101531.78;;;16.43;63.35
61026;BME280;46911;32.650;-16.902;2023-04-09T01:34:08;101554.59;;;16.50;63.29
61026;BME280;46911;32.650;-16.902;2023-04-09T01:36:09;101537.91;;;16.34;63.50
61026;BME280;46911;32.650;-16.902;2023-04-09T01:38:14;101539.03;;;16.43;63.55
61026;BME280;46911;32.650;-16.902;2023-04-09T01:40:19;101549.69;;;16.44;63.44
61026;BME280;46911;32.650;-16.902;2023-04-09T01:42:20;101527.03;;;16.24;63.70
61026;BME280;46911;32.650;-16.902;2023-04-09T01:44:22;101534.97;;;16.26;63.62
61026;BME280;46911;32.650;-16.902;2023-04-09T01:46:26;101528.50;;;16.17;63.94
61026;BME280;46911;32.650;-16.902;2023-04-09T01:48:31;101543.44;;;16.21;63.97
61026;BME280;46911;32.650;-16.902;2023-04-09T01:50:33;101543.66;;;16.18;64.08
61026;BME280;46911;32.650;-16.902;2023-04-09T01:52:37;101532.78;;;16.19;63.85
61026;BME280;46911;32.650;-16.902;2023-04-09T01:54:38;101539.38;;;16.15;63.73
61026;BME280;46911;32.650;-16.902;2023-04-09T01:56:45;101543.66;;;16.18;63.86
61026;BME280;46911;32.650;-16.902;2023-04-09T01:58:49;101534.09;;;16.14;63.87
61026;BME280;46911;32.650;-16.902;2023-04-09T02:00:56;101528.59;;;16.15;63.71
61026;BME280;46911;32.650;-16.902;2023-04-09T02:03:10;101532.63;;;16.10;64.14
61026;BME280;46911;32.650;-16.902;2023-04-09T02:05:19;101515.50;;;15.99;63.99
61026;BME280;46911;32.650;-16.902;2023-04-09T02:07:43;101507.16;;;15.91;64.11
61026;BME280;46911;32.650;-16.902;2023-04-09T02:09:48;101513.63;;;15.88;64.24
61026;BME280;46911;32.650;-16.902;2023-04-09T02:11:57;101512.03;;;15.86;64.44
61026;BME280;46911;32.650;-16.902;2023-04-09T02:13:59;101507.13;;;15.80;64.45
61026;BME280;46911;32.650;-16.902;2023-04-09T02:16:04;101505.41;;;15.79;64.29
61026;BME280;46911;32.650;-16.902;2023-04-09T02:20:25;101515.47;;;15.88;64.27
61026;BME280;46911;32.650;-16.902;2023-04-09T02:22:30;101507.13;;;15.80;64.15
61026;BME280;46911;32.650;-16.902;2023-04-09T02:24:33;101498.31;;;15.78;64.15
61026;BME280;46911;32.650;-16.902;2023-04-09T02:26:38;101480.44;;;15.77;63.98
61026;BME280;46911;32.650;-16.902;2023-04-09T02:28:39;101473.25;;;15.77;63.83
61026;BME280;46911;32.650;-16.902;2023-04-09T02:30:40;101484.66;;;15.81;63.62
61026;BME280;46911;32.650;-16.902;2023-04-09T02:32:45;101502.63;;;15.80;63.22
61026;BME280;46911;32.650;-16.902;2023-04-09T02:34:49;101497.47;;;15.77;62.26
61026;BME280;46911;32.650;-16.902;2023-04-09T02:36:50;101504.06;;;15.73;61.99
61026;BME280;46911;32.650;-16.902;2023-04-09T02:38:53;101501.69;;;15.68;61.30
61026;BME280;46911;32.650;-16.902;2023-04-09T02:40:54;101493.13;;;15.63;60.84
61026;BME280;46911;32.650;-16.902;2023-04-09T02:43:00;101502.91;;;15.64;60.61
61026;BME280;46911;32.650;-16.902;2023-04-09T02:45:03;101479.44;;;15.55;60.69
61026;BME280;46911;32.650;-16.902;2023-04-09T02:47:06;101503.41;;;15.58;60.79
61026;BME280;46911;32.650;-16.902;2023-04-09T02:49:14;101499.00;;;15.57;61.19
61026;BME280;46911;32.650;-16.902;2023-04-09T02:51:19;101473.63;;;15.37;61.53
61026;BME280;46911;32.650;-16.902;2023-04-09T02:53:22;101495.03;;;15.50;61.13
61026;BME280;46911;32.650;-16.902;2023-04-09T02:55:26;101473.97;;;15.32;60.91
61026;BME280;46911;32.650;-16.902;2023-04-09T02:57:30;101485.47;;;15.34;61.07
61026;BME280;46911;32.650;-16.902;2023-04-09T02:59:33;101482.72;;;15.23;61.14
61026;BME280;46911;32.650;-16.902;2023-04-09T03:01:41;101493.06;;;15.40;60.94
61026;BME280;46911;32.650;-16.902;2023-04-09T03:03:45;101494.06;;;15.39;60.77
61026;BME280;46911;32.650;-16.902;2023-04-09T03:05:49;101473.72;;;15.24;60.94
61026;BME280;46911;32.650;-16.902;2023-04-09T03:07:50;101491.81;;;15.33;61.13
61026;BME280;46911;32.650;-16.902;2023-04-09T03:09:51;101498.16;;;15.32;61.32
61026;BME280;46911;32.650;-16.902;2023-04-09T03:11:52;101502.31;;;15.25;61.58
61026;BME280;46911;32.650;-16.902;2023-04-09T03:13:52;101494.38;;;15.23;61.57
61026;BME280;46911;32.650;-16.902;2023-04-09T03:15:58;101474.00;;;15.08;61.63
61026;BME280;46911;32.650;-16.902;2023-04-09T03:18:01;101481.75;;;15.13;61.85
61026;BME280;46911;32.650;-16.902;2023-04-09T03:20:06;101470.34;;;15.09;61.80
61026;BME280;46911;32.650;-16.902;2023-04-09T03:22:10;101465.56;;;15.01;62.19
61026;BME280;46911;32.650;-16.902;2023-04-09T03:24:11;101482.97;;;15.20;61.85
61026;BME280;46911;32.650;-16.902;2023-04-09T03:26:13;101479.84;;;15.26;61.96
61026;BME280;46911;32.650;-16.902;2023-04-09T03:28:20;101477.88;;;15.28;62.10
61026;BME280;46911;32.650;-16.902;2023-04-09T03:30:28;101479.84;;;15.26;61.97
61026;BME280;46911;32.650;-16.902;2023-04-09T03:32:30;101448.00;;;15.09;62.11
61026;BME280;46911;32.650;-16.902;2023-04-09T03:34:31;101475.66;;;15.22;62.13
61026;BME280;46911;32.650;-16.902;2023-04-09T03:36:34;101445.22;;;15.10;62.25
61026;BME280;46911;32.650;-16.902;2023-04-09T03:38:47;101448.75;;;15.11;62.17
61026;BME280;46911;32.650;-16.902;2023-04-09T03:41:11;101449.50;;;15.13;62.29
61026;BME280;46911;32.650;-16.902;2023-04-09T03:43:12;101450.69;;;15.09;62.47
61026;BME280;46911;32.650;-16.902;2023-04-09T03:45:24;101460.44;;;15.10;62.81
61026;BME280;46911;32.650;-16.902;2023-04-09T03:47:35;101454.16;;;14.98;63.07
61026;BME280;46911;32.650;-16.902;2023-04-09T03:49:38;101437.59;;;15.04;62.93
61026;BME280;46911;32.650;-16.902;2023-04-09T03:51:53;101447.53;;;15.15;62.89
61026;BME280;46911;32.650;-16.902;2023-04-09T03:53:59;101437.25;;;15.09;62.70
61026;BME280;46911;32.650;-16.902;2023-04-09T03:56:00;101429.47;;;15.17;62.92
61026;BME280;46911;32.650;-16.902;2023-04-09T03:58:03;101446.28;;;15.43;62.77
61026;BME280;46911;32.650;-16.902;2023-04-09T04:00:10;101446.28;;;15.43;62.60
61026;BME280;46911;32.650;-16.902;2023-04-09T04:02:51;101434.41;;;15.34;62.93
61026;BME280;46911;32.650;-16.902;2023-04-09T04:05:05;101443.00;;;15.51;62.41
61026;BME280;46911;32.650;-16.902;2023-04-09T04:07:16;101451.44;;;15.46;62.83
61026;BME280;46911;32.650;-16.902;2023-04-09T04:09:24;101428.84;;;15.49;62.46
61026;BME280;46911;32.650;-16.902;2023-04-09T04:11:36;101419.88;;;15.37;62.59
61026;BME280;46911;32.650;-16.902;2023-04-09T04:13:37;101448.63;;;15.48;62.65
61026;BME280;46911;32.650;-16.902;2023-04-09T04:15:42;101444.59;;;15.42;62.59
61026;BME280;46911;32.650;-16.902;2023-04-09T04:17:46;101410.16;;;15.12;62.83
61026;BME280;46911;32.650;-16.902;2023-04-09T04:20:04;101453.56;;;15.30;63.04
61026;BME280;46911;32.650;-16.902;2023-04-09T04:22:13;101404.13;;;14.97;63.40
61026;BME280;46911;32.650;-16.902;2023-04-09T04:24:18;101426.13;;;15.02;62.95
61026;BME280;46911;32.650;-16.902;2023-04-09T04:26:22;101454.22;;;15.09;63.26
61026;BME280;46911;32.650;-16.902;2023-04-09T04:28:25;101437.06;;;14.99;63.22
61026;BME280;46911;32.650;-16.902;2023-04-09T04:30:31;101458.28;;;15.15;63.50
61026;BME280;46911;32.650;-16.902;2023-04-09T04:32:39;101462.56;;;15.17;63.49
61026;BME280;46911;32.650;-16.902;2023-04-09T04:34:48;101450.72;;;15.20;63.29
61026;BME280;46911;32.650;-16.902;2023-04-09T04:37:00;101446.75;;;15.37;62.74
61026;BME280;46911;32.650;-16.902;2023-04-09T04:39:04;101460.47;;;15.45;62.40
61026;BME280;46911;32.650;-16.902;2023-04-09T04:41:17;101466.09;;;15.42;62.64
61026;BME280;46911;32.650;-16.902;2023-04-09T04:43:30;101448.22;;;15.41;62.28
61026;BME280;46911;32.650;-16.902;2023-04-09T04:45:33;101451.38;;;15.35;63.09
61026;BME280;46911;32.650;-16.902;2023-04-09T04:47:39;101451.88;;;15.29;62.53
61026;BME280;46911;32.650;-16.902;2023-04-09T04:49:43;101460.03;;;15.27;63.43
61026;BME280;46911;32.650;-16.902;2023-04-09T04:51:44;101461.31;;;15.10;63.80
61026;BME280;46911;32.650;-16.902;2023-04-09T04:53:48;101463.34;;;14.95;63.98
61026;BME280;46911;32.650;-16.902;2023-04-09T04:55:49;101466.75;;;14.97;63.98
61026;BME280;46911;32.650;-16.902;2023-04-09T04:57:56;101474.78;;;14.86;63.88
61026;BME280;46911;32.650;-16.902;2023-04-09T05:00:01;101479.94;;;14.76;63.98
61026;BME280;46911;32.650;-16.902;2023-04-09T05:02:08;101492.28;;;14.79;64.04
61026;BME280;46911;32.650;-16.902;2023-04-09T05:04:33;101495.44;;;14.72;64.03
61026;BME280;46911;32.650;-16.902;2023-04-09T05:06:34;101484.06;;;14.56;64.15
61026;BME280;46911;32.650;-16.902;2023-04-09T05:08:39;101494.91;;;14.54;64.10
61026;BME280;46911;32.650;-16.902;2023-04-09T05:10:41;101496.94;;;14.51;64.00
61026;BME280;46911;32.650;-16.902;2023-04-09T05:12:49;101488.28;;;14.47;64.19
61026;BME280;46911;32.650;-16.902;2023-04-09T05:15:06;101515.31;;;14.57;64.26
61026;BME280;46911;32.650;-16.902;2023-04-09T05:17:11;101490.31;;;14.44;63.93
61026;BME280;46911;32.650;-16.902;2023-04-09T05:19:19;101505.00;;;14.51;64.02
61026;BME280;46911;32.650;-16.902;2023-04-09T05:21:29;101518.22;;;14.54;63.97
61026;BME280;46911;32.650;-16.902;2023-04-09T05:23:35;101502.97;;;14.42;63.62
61026;BME280;46911;32.650;-16.902;2023-04-09T05:25:36;101503.97;;;14.40;63.83
61026;BME280;46911;32.650;-16.902;2023-04-09T05:27:37;101522.09;;;14.50;63.62
61026;BME280;46911;32.650;-16.902;2023-04-09T05:29:41;101531.13;;;14.49;63.63
61026;BME280;46911;32.650;-16.902;2023-04-09T05:31:46;101528.13;;;14.40;63.63
61026;BME280;46911;32.650;-16.902;2023-04-09T05:34:01;101546.34;;;14.48;63.93
61026;BME280;46911;32.650;-16.902;2023-04-09T05:36:19;101528.66;;;14.33;64.08
61026;BME280;46911;32.650;-16.902;2023-04-09T05:38:20;101525.44;;;14.28;64.08
61026;BME280;46911;32.650;-16.902;2023-04-09T05:40:28;101555.69;;;14.43;64.06
61026;BME280;46911;32.650;-16.902;2023-04-09T05:42:32;101555.94;;;14.39;64.14
61026;BME280;46911;32.650;-16.902;2023-04-09T05:44:43;101552.28;;;14.40;64.10
61026;BME280;46911;32.650;-16.902;2023-04-09T05:46:51;101565.47;;;14.44;63.75
61026;BME280;46911;32.650;-16.902;2023-04-09T05:48:58;101547.22;;;14.36;63.78
61026;BME280;46911;32.650;-16.902;2023-04-09T05:51:02;101569.00;;;14.44;63.66
61026;BME280;46911;32.650;-16.902;2023-04-09T05:53:03;101574.28;;;14.46;63.49
61026;BME280;46911;32.650;-16.902;2023-04-09T05:55:11;101578.13;;;14.42;63.39
61026;BME280;46911;32.650;-16.902;2023-04-09T05:57:20;101585.44;;;14.39;63.56
61026;BME280;46911;32.650;-16.902;2023-04-09T05:59:28;101597.91;;;14.40;63.42
61026;BME280;46911;32.650;-16.902;2023-04-09T06:01:34;101604.34;;;14.38;63.59
61026;BME280;46911;32.650;-16.902;2023-04-09T06:03:39;101596.84;;;14.30;63.37
61026;BME280;46911;32.650;-16.902;2023-04-09T06:05:46;101610.25;;;14.43;62.97
61026;BME280;46911;32.650;-16.902;2023-04-09T06:07:49;101619.69;;;14.49;62.97
61026;BME280;46911;32.650;-16.902;2023-04-09T06:09:50;101617.25;;;14.46;62.87
61026;BME280;46911;32.650;-16.902;2023-04-09T06:11:54;101625.28;;;14.59;62.64
61026;BME280;46911;32.650;-16.902;2023-04-09T06:13:55;101622.47;;;14.60;62.72
61026;BME280;46911;32.650;-16.902;2023-04-09T06:15:58;101606.28;;;14.49;62.76
61026;BME280;46911;32.650;-16.902;2023-04-09T06:18:01;101607.78;;;14.53;62.71
61026;BME280;46911;32.650;-16.902;2023-04-09T06:20:03;101618.28;;;14.56;62.14
61026;BME280;46911;32.650;-16.902;2023-04-09T06:22:04;101634.75;;;14.64;61.88
61026;BME280;46911;32.650;-16.902;2023-04-09T06:24:07;101626.88;;;14.61;61.21
61026;BME280;46911;32.650;-16.902;2023-04-09T06:26:08;101625.16;;;14.60;61.40
61026;BME280;46911;32.650;-16.902;2023-04-09T06:28:11;101652.91;;;14.73;61.18
61026;BME280;46911;32.650;-16.902;2023-04-09T06:30:14;101643.44;;;14.68;61.19
61026;BME280;46911;32.650;-16.902;2023-04-09T06:32:17;101658.81;;;14.79;61.07
61026;BME280;46911;32.650;-16.902;2023-04-09T06:34:19;101640.31;;;14.61;61.19
61026;BME280;46911;32.650;-16.902;2023-04-09T06:36:19;101664.63;;;14.72;60.99
61026;BME280;46911;32.650;-16.902;2023-04-09T06:38:20;101667.09;;;14.76;61.12
61026;BME280;46911;32.650;-16.902;2023-04-09T06:40:27;101663.75;;;14.72;60.91
61026;BME280;46911;32.650;-16.902;2023-04-09T06:42:30;101641.28;;;14.60;60.94
61026;BME280;46911;32.650;-16.902;2023-04-09T06:44:51;101647.81;;;14.56;60.87
61026;BME280;46911;32.650;-16.902;2023-04-09T06:46:52;101658.91;;;14.51;60.72
61026;BME280;46911;32.650;-16.902;2023-04-09T06:48:53;101661.25;;;14.56;61.13
61026;BME280;46911;32.650;-16.902;2023-04-09T06:50:54;101666.63;;;14.56;61.16
61026;BME280;46911;32.650;-16.902;2023-04-09T06:52:56;101674.25;;;14.62;61.24
61026;BME280;46911;32.650;-16.902;2023-04-09T06:54:56;101675.91;;;14.65;61.51
61026;BME280;46911;32.650;-16.902;2023-04-09T06:57:00;101655.25;;;14.52;61.47
61026;BME280;46911;32.650;-16.902;2023-04-09T06:59:03;101696.50;;;14.64;61.31
61026;BME280;46911;32.650;-16.902;2023-04-09T07:01:04;101692.75;;;14.67;61.27
61026;BME280;46911;32.650;-16.902;2023-04-09T07:03:07;101673.06;;;14.53;61.72
61026;BME280;46911;32.650;-16.902;2023-04-09T07:05:08;101700.38;;;14.73;61.26
61026;BME280;46911;32.650;-16.902;2023-04-09T07:07:09;101685.88;;;14.76;60.81
61026;BME280;46911;32.650;-16.902;2023-04-09T07:09:13;101679.56;;;14.77;60.99
61026;BME280;46911;32.650;-16.902;2023-04-09T07:11:19;101708.97;;;14.91;60.77
61026;BME280;46911;32.650;-16.902;2023-04-09T07:13:20;101675.47;;;14.84;60.90
61026;BME280;46911;32.650;-16.902;2023-04-09T07:15:24;101699.63;;;14.97;60.74
61026;BME280;46911;32.650;-16.902;2023-04-09T07:17:25;101686.41;;;14.94;60.49
61026;BME280;46911;32.650;-16.902;2023-04-09T07:19:25;101708.31;;;15.13;60.42
61026;BME280;46911;32.650;-16.902;2023-04-09T07:21:26;101713.44;;;15.16;60.38
61026;BME280;46911;32.650;-16.902;2023-04-09T07:23:30;101699.59;;;15.10;60.38
61026;BME280;46911;32.650;-16.902;2023-04-09T07:25:33;101723.56;;;15.26;60.24
61026;BME280;46911;32.650;-16.902;2023-04-09T07:27:39;101705.19;;;15.19;60.23
61026;BME280;46911;32.650;-16.902;2023-04-09T07:29:45;101703.13;;;15.23;60.05
61026;BME280;46911;32.650;-16.902;2023-04-09T07:31:48;101732.31;;;15.40;59.95
61026;BME280;46911;32.650;-16.902;2023-04-09T07:33:49;101715.13;;;15.43;60.09
61026;BME280;46911;32.650;-16.902;2023-04-09T07:35:55;101731.34;;;15.54;59.99
61026;BME280;46911;32.650;-16.902;2023-04-09T07:37:57;101729.19;;;15.60;59.86
61026;BME280;46911;32.650;-16.902;2023-04-09T07:40:01;101729.78;;;15.63;60.05
61026;BME280;46911;32.650;-16.902;2023-04-09T07:42:06;101729.13;;;15.72;59.82
61026;BME280;46911;32.650;-16.902;2023-04-09T07:44:09;101710.94;;;15.76;59.51
61026;BME280;46911;32.650;-16.902;2023-04-09T07:46:19;101709.06;;;15.89;59.37
61026;BME280;46911;32.650;-16.902;2023-04-09T07:48:21;101716.69;;;15.96;59.44
61026;BME280;46911;32.650;-16.902;2023-04-09T07:50:22;101693.56;;;15.93;59.18
61026;BME280;46911;32.650;-16.902;2023-04-09T07:52:23;101713.94;;;16.09;59.07
61026;BME280;46911;32.650;-16.902;2023-04-09T07:54:24;101711.16;;;16.21;58.95
61026;BME280;46911;32.650;-16.902;2023-04-09T07:56:25;101699.56;;;16.21;58.84
61026;BME280;46911;32.650;-16.902;2023-04-09T07:58:26;101710.63;;;16.40;58.64
61026;BME280;46911;32.650;-16.902;2023-04-09T08:00:29;101702.78;;;16.49;58.45
61026;BME280;46911;32.650;-16.902;2023-04-09T08:02:32;101721.69;;;16.60;58.52
61026;BME280;46911;32.650;-16.902;2023-04-09T08:04:38;101716.22;;;16.73;58.25
61026;BME280;46911;32.650;-16.902;2023-04-09T08:06:39;101707.25;;;16.72;58.12
61026;BME280;46911;32.650;-16.902;2023-04-09T08:08:45;101721.75;;;16.94;57.40
61026;BME280;46911;32.650;-16.902;2023-04-09T08:10:49;101724.09;;;17.10;57.29
61026;BME280;46911;32.650;-16.902;2023-04-09T08:12:53;101705.59;;;17.05;57.22
61026;BME280;46911;32.650;-16.902;2023-04-09T08:14:56;101718.72;;;17.21;56.94
61026;BME280;46911;32.650;-16.902;2023-04-09T08:17:00;101704.97;;;17.24;56.83
61026;BME280;46911;32.650;-16.902;2023-04-09T08:19:01;101702.91;;;17.28;56.63
61026;BME280;46911;32.650;-16.902;2023-04-09T08:21:03;101721.50;;;17.54;56.48
61026;BME280;46911;32.650;-16.902;2023-04-09T08:23:10;101706.06;;;17.56;56.23
61026;BME280;46911;32.650;-16.902;2023-04-09T08:25:11;101707.72;;;17.68;55.89
61026;BME280;46911;32.650;-16.902;2023-04-09T08:27:15;101716.53;;;17.82;55.58
61026;BME280;46911;32.650;-16.902;2023-04-09T08:29:17;101722.84;;;18.03;55.47
61026;BME280;46911;32.650;-16.902;2023-04-09T08:31:18;101731.06;;;18.13;54.89
61026;BME280;46911;32.650;-16.902;2023-04-09T08:33:21;101726.44;;;18.25;54.97
61026;BME280;46911;32.650;-16.902;2023-04-09T08:35:24;101727.13;;;18.38;54.72
61026;BME280;46911;32.650;-16.902;2023-04-09T08:37:28;101708.81;;;18.42;54.51
61026;BME280;46911;32.650;-16.902;2023-04-09T08:39:29;101711.03;;;18.58;54.21
61026;BME280;46911;32.650;-16.902;2023-04-09T08:41:33;101728.56;;;18.85;53.73
61026;BME280;46911;32.650;-16.902;2023-04-09T08:43:38;101723.81;;;18.98;53.44
61026;BME280;46911;32.650;-16.902;2023-04-09T08:45:40;101710.16;;;19.00;53.00
61026;BME280;46911;32.650;-16.902;2023-04-09T08:47:42;101709.34;;;19.09;52.21
61026;BME280;46911;32.650;-16.902;2023-04-09T08:49:44;101714.72;;;18.99;52.54
61026;BME280;46911;32.650;-16.902;2023-04-09T08:51:48;101701.34;;;18.98;52.16
61026;BME280;46911;32.650;-16.902;2023-04-09T08:53:58;101723.44;;;19.03;52.48
61026;BME280;46911;32.650;-16.902;2023-04-09T08:55:59;101718.47;;;19.08;52.07
61026;BME280;46911;32.650;-16.902;2023-04-09T08:58:06;101732.66;;;19.00;52.19
61026;BME280;46911;32.650;-16.902;2023-04-09T09:00:10;101741.31;;;18.94;52.52
61026;BME280;46911;32.650;-16.902;2023-04-09T09:02:16;101737.22;;;18.79;52.36
61026;BME280;46911;32.650;-16.902;2023-04-09T09:04:17;101752.41;;;18.91;52.97
61026;BME280;46911;32.650;-16.902;2023-04-09T09:06:25;101758.38;;;18.95;53.14
61026;BME280;46911;32.650;-16.902;2023-04-09T09:08:27;101756.69;;;19.24;52.26
61026;BME280;46911;32.650;-16.902;2023-04-09T09:10:41;101729.25;;;19.89;50.63
61026;BME280;46911;32.650;-16.902;2023-04-09T09:12:43;101734.13;;;20.15;49.75
61026;BME280;46911;32.650;-16.902;2023-04-09T09:14:47;101717.00;;;20.24;49.28
61026;BME280;46911;32.650;-16.902;2023-04-09T09:18:54;101732.13;;;21.04;48.34
61026;BME280;46911;32.650;-16.902;2023-04-09T09:21:17;101717.28;;;21.36;46.99
61026;BME280;46911;32.650;-16.902;2023-04-09T09:23:37;101757.28;;;21.71;46.24
61026;BME280;46911;32.650;-16.902;2023-04-09T09:25:39;101752.94;;;22.15;45.11
61026;BME280;46911;32.650;-16.902;2023-04-09T09:27:45;101772.44;;;22.28;45.27
61026;BME280;46911;32.650;-16.902;2023-04-09T09:29:46;101782.94;;;22.59;44.74
61026;BME280;46911;32.650;-16.902;2023-04-09T09:31:51;101761.50;;;22.56;44.56
61026;BME280;46911;32.650;-16.902;2023-04-09T09:33:52;101771.22;;;22.40;44.80
61026;BME280;46911;32.650;-16.902;2023-04-09T09:35:58;101784.59;;;22.52;43.97
61026;BME280;46911;32.650;-16.902;2023-04-09T09:38:01;101772.25;;;22.39;44.86
61026;BME280;46911;32.650;-16.902;2023-04-09T09:40:03;101779.03;;;22.80;43.73
61026;BME280;46911;32.650;-16.902;2023-04-09T09:42:07;101802.69;;;22.61;44.00
61026;BME280;46911;32.650;-16.902;2023-04-09T09:44:09;101783.69;;;22.69;43.98
61026;BME280;46911;32.650;-16.902;2023-04-09T09:46:11;101790.38;;;22.75;44.35
61026;BME280;46911;32.650;-16.902;2023-04-09T09:48:12;101777.19;;;22.88;43.98
61026;BME280;46911;32.650;-16.902;2023-04-09T09:50:13;101797.88;;;23.07;43.32
61026;BME280;46911;32.650;-16.902;2023-04-09T09:52:22;101790.31;;;23.46;42.92
61026;BME280;46911;32.650;-16.902;2023-04-09T09:54:25;101779.19;;;23.73;41.96
61026;BME280;46911;32.650;-16.902;2023-04-09T09:56:32;101787.31;;;24.00;41.31
61026;BME280;46911;32.650;-16.902;2023-04-09T09:58:37;101792.38;;;23.52;42.16
61026;BME280;46911;32.650;-16.902;2023-04-09T10:00:43;101812.69;;;24.17;40.93
61026;BME280;46911;32.650;-16.902;2023-04-09T10:02:56;101797.50;;;23.98;40.92
61026;BME280;46911;32.650;-16.902;2023-04-09T10:05:02;101806.22;;;24.26;40.37
61026;BME280;46911;32.650;-16.902;2023-04-09T10:07:05;101817.38;;;24.66;39.58
61026;BME280;46911;32.650;-16.902;2023-04-09T10:09:11;101790.47;;;23.87;41.31
61026;BME280;46911;32.650;-16.902;2023-04-09T10:11:13;101833.28;;;23.95;40.92
61026;BME280;46911;32.650;-16.902;2023-04-09T10:13:25;101826.72;;;25.04;39.59
61026;BME280;46911;32.650;-16.902;2023-04-09T10:15:31;101832.88;;;24.98;39.74
61026;BME280;46911;32.650;-16.902;2023-04-09T10:17:32;101830.50;;;24.70;39.65
61026;BME280;46911;32.650;-16.902;2023-04-09T10:19:38;101828.59;;;24.54;40.48
61026;BME280;46911;32.650;-16.902;2023-04-09T10:22:20;101836.94;;;24.28;41.09
61026;BME280;46911;32.650;-16.902;2023-04-09T10:24:23;101839.84;;;24.43;40.75
61026;BME280;46911;32.650;-16.902;2023-04-09T10:26:38;101823.19;;;24.63;39.89
61026;BME280;46911;32.650;-16.902;2023-04-09T10:28:45;101834.56;;;24.50;40.73
61026;BME280;46911;32.650;-16.902;2023-04-09T10:30:45;101831.97;;;23.38;42.87
61026;BME280;46911;32.650;-16.902;2023-04-09T10:32:49;101851.38;;;24.20;41.15
61026;BME280;46911;32.650;-16.902;2023-04-09T10:34:49;101840.31;;;23.79;41.56
61026;BME280;46911;32.650;-16.902;2023-04-09T10:36:58;101848.38;;;23.89;42.06
61026;BME280;46911;32.650;-16.902;2023-04-09T10:39:10;101852.75;;;23.82;42.18
61026;BME280;46911;32.650;-16.902;2023-04-09T10:41:21;101839.13;;;24.16;41.03
61026;BME280;46911;32.650;-16.902;2023-04-09T10:43:25;101856.44;;;23.64;42.49
61026;BME280;46911;32.650;-16.902;2023-04-09T10:45:39;101858.03;;;23.83;42.29
61026;BME280;46911;32.650;-16.902;2023-04-09T10:47:48;101850.22;;;23.80;43.00